Time;durP1;ratioP1;P1;durP2;ratioP2;P2;SDS_P1;SDS_P2;PMS_P1;PMS_P2;Temp;Humidity;BMP_temperature;BMP_pressure;BME280_temperature;BME280_humidity;BME280_pressure;Samples;Min_cycle;Max_cycle;Signal;HPM_P1;HPM_P2
2024/03/08 00:00:12;;;;;;;;;;;;;;;;;;4167000;28;19925;-59
2024/03/08 00:02:13;;;;;;;;;;;;;;;;;;4165976;28;19921;-60
2024/03/08 00:04:15;;;;;;;;;;;;;;;;;;4167206;28;19921;-60
2024/03/08 00:06:17;;;;;;;;;;;;;;;;;;4167671;28;19924;-59
2024/03/08 00:08:18;;;;;;;;;;;;;;;;;;4167576;28;19967;-59
2024/03/08 00:10:20;;;;;;;;;;;;;;;;;;4167407;28;19952;-59
2024/03/08 00:12:25;;;;;;;;;;;;;;;;;;4167562;28;20019;-59
2024/03/08 00:14:27;;;;;;;;;;;;;;;;;;4167346;28;20373;-59
2024/03/08 00:16:29;;;;;;;;;;;;;;;;;;4149202;28;19967;-60
2024/03/08 00:18:30;;;;;;;;;;;;;;;;;;4167204;28;19921;-59
2024/03/08 00:20:32;;;;;;;;;;;;;;;;;;4167543;28;19920;-59
2024/03/08 00:22:33;;;;;;;;;;;;;;;;;;4167203;28;19991;-59
2024/03/08 00:24:35;;;;;;;;;;;;;;;;;;4167378;28;19921;-61
2024/03/08 00:26:37;;;;;;;;;;;;;;;;;;4167036;28;19940;-59
2024/03/08 00:28:38;;;;;;;;;;;;;;;;;;4167130;28;19921;-59
2024/03/08 00:30:40;;;;;;;;;;;;;;;;;;4167160;28;20371;-60
2024/03/08 00:32:41;;;;;;;;;;;;;;;;;;4167062;28;20339;-59
2024/03/08 00:34:43;;;;;;;;;;;;;;;;;;4167036;28;20031;-59
2024/03/08 00:36:44;;;;;;;;;;;;;;;;;;4167093;28;19931;-59
2024/03/08 00:38:46;;;;;;;;;;;;;;;;;;4166861;28;19971;-59
2024/03/08 00:40:47;;;;;;;;;;;;;;;;;;4174452;28;20072;-60
2024/03/08 00:42:49;;;;;;;;;;;;;;;;;;4183286;28;19930;-59
2024/03/08 00:44:50;;;;;;;;;;;;;;;;;;4183527;28;19943;-60
2024/03/08 00:46:53;;;;;;;;;;;;;;;;;;4150381;28;19929;-60
2024/03/08 00:48:56;;;;;;;;;;;;;;;;;;4133202;28;19992;-63
2024/03/08 00:50:58;;;;;;;;;;;;;;;;;;4150454;28;19921;-63
2024/03/08 00:52:59;;;;;;;;;;;;;;;;;;4150862;28;20314;-63
2024/03/08 00:55:01;;;;;;;;;;;;;;;;;;4150397;28;19967;-63
2024/03/08 00:57:03;;;;;;;;;;;;;;;;;;4150668;28;19925;-62
2024/03/08 00:59:04;;;;;;;;;;;;;;;;;;4150678;28;19933;-63
2024/03/08 01:01:06;;;;;;;;;;;;;;;;;;4149758;28;19921;-63
2024/03/08 01:03:08;;;;;;;;;;;;;;;;;;4150396;28;19925;-62
2024/03/08 01:05:09;;;;;;;;;;;;;;;;;;4150193;28;20377;-63
2024/03/08 01:07:11;;;;;;;;;;;;;;;;;;4150207;28;19925;-63
2024/03/08 01:09:12;;;;;;;;;;;;;;;;;;4150228;28;19975;-63
2024/03/08 01:11:17;;;;;;;;;;;;;;;;;;4150061;28;19925;-63
2024/03/08 01:13:19;;;;;;;;;;;;;;;;;;4150380;28;19971;-63
2024/03/08 01:15:20;;;;;;;;;;;;;;;;;;4150233;28;19922;-62
2024/03/08 01:17:22;;;;;;;;;;;;;;;;;;4150085;28;20356;-63
2024/03/08 01:19:23;;;;;;;;;;;;;;;;;;4150329;28;19925;-63
2024/03/08 01:21:25;;;;;;;;;;;;;;;;;;4132460;28;20013;-63
2024/03/08 01:23:27;;;;;;;;;;;;;;;;;;4150074;28;19933;-62
2024/03/08 01:25:28;;;;;;;;;;;;;;;;;;4149971;28;19932;-63
2024/03/08 01:27:30;;;;;;;;;;;;;;;;;;4149882;28;20353;-62
2024/03/08 01:29:32;;;;;;;;;;;;;;;;;;4149871;28;19928;-62
2024/03/08 01:31:34;;;;;;;;;;;;;;;;;;4149826;28;19967;-63
2024/03/08 01:33:35;;;;;;;;;;;;;;;;;;4149782;28;19987;-63
2024/03/08 01:35:37;;;;;;;;;;;;;;;;;;4149904;28;19925;-63
2024/03/08 01:37:38;;;;;;;;;;;;;;;;;;4161648;28;19921;-62
2024/03/08 01:39:40;;;;;;;;;;;;;;;;;;4166159;28;19944;-63
2024/03/08 01:41:41;;;;;;;;;;;;;;;;;;4166013;28;19978;-63
2024/03/08 01:43:43;;;;;;;;;;;;;;;;;;4166286;28;19931;-63
2024/03/08 01:45:44;;;;;;;;;;;;;;;;;;4166183;28;19921;-63
2024/03/08 01:47:48;;;;;;;;;;;;;;;;;;4165912;28;20396;-63
2024/03/08 01:49:49;;;;;;;;;;;;;;;;;;4165858;28;20384;-63
2024/03/08 01:51:51;;;;;;;;;;;;;;;;;;4165752;28;19928;-63
2024/03/08 01:53:52;;;;;;;;;;;;;;;;;;4165852;28;20327;-62
2024/03/08 01:55:54;;;;;;;;;;;;;;;;;;4165808;28;19925;-63
2024/03/08 01:57:55;;;;;;;;;;;;;;;;;;4164914;28;19975;-63
2024/03/08 01:59:57;;;;;;;;;;;;;;;;;;4166040;28;19929;-60
2024/03/08 02:01:58;;;;;;;;;;;;;;;;;;4165837;28;20385;-63
2024/03/08 02:04:00;;;;;;;;;;;;;;;;;;4201409;23;20286;-84
2024/03/08 02:06:01;;;;;;;;;;;;;;;;;;4207821;28;20268;-87
2024/03/08 02:08:03;;;;;;;;;;;;;;;;;;4164373;28;19924;-87
2024/03/08 02:10:05;;;;;;;;;;;;;;;;;;4181432;28;20451;-87
2024/03/08 02:12:06;;;;;;;;;;;;;;;;;;4180324;28;19978;-87
2024/03/08 02:14:09;;;;;;;;;;;;;;;;;;4196208;28;19924;-87
2024/03/08 02:16:10;;;;;;;;;;;;;;;;;;4197466;28;19920;-87
2024/03/08 02:18:12;;;;;;;;;;;;;;;;;;4197459;28;19920;-87
2024/03/08 02:20:13;;;;;;;;;;;;;;;;;;4197660;28;20307;-87
2024/03/08 02:22:15;;;;;;;;;;;;;;;;;;4197468;28;20363;-87
2024/03/08 02:24:17;;;;;;;;;;;;;;;;;;4215300;28;19924;-87
2024/03/08 02:26:18;;;;;;;;;;;;;;;;;;4196434;28;19921;-87
2024/03/08 02:28:20;;;;;;;;;;;;;;;;;;4197127;28;19921;-88
2024/03/08 02:30:21;;;;;;;;;;;;;;;;;;4198598;28;19924;-87
2024/03/08 02:32:23;;;;;;;;;;;;;;;;;;4180489;28;19924;-88
2024/03/08 02:34:25;;;;;;;;;;;;;;;;;;4180668;28;19920;-87
2024/03/08 02:36:26;;;;;;;;;;;;;;;;;;4196942;28;19971;-87
2024/03/08 02:38:28;;;;;;;;;;;;;;;;;;4197440;28;20490;-87
2024/03/08 02:40:30;;;;;;;;;;;;;;;;;;4215413;28;19928;-88
2024/03/08 02:42:33;;;;;;;;;;;;;;;;;;4215023;28;19951;-87
2024/03/08 02:44:35;;;;;;;;;;;;;;;;;;4197059;28;19921;-87
2024/03/08 02:46:36;;;;;;;;;;;;;;;;;;4197167;28;20365;-87
2024/03/08 02:48:39;;;;;;;;;;;;;;;;;;4212918;28;19920;-87
2024/03/08 02:50:42;;;;;;;;;;;;;;;;;;4215159;28;19981;-88
2024/03/08 02:52:46;;;;;;;;;;;;;;;;;;4197076;28;20280;-87
2024/03/08 02:54:48;;;;;;;;;;;;;;;;;;4180354;28;19920;-87
2024/03/08 02:56:52;;;;;;;;;;;;;;;;;;4180205;28;20031;-87
2024/03/08 02:58:54;;;;;;;;;;;;;;;;;;4196880;28;19931;-87
2024/03/08 03:00:57;;;;;;;;;;;;;;;;;;4214584;28;20294;-87
2024/03/08 03:02:59;;;;;;;;;;;;;;;;;;4193460;28;19921;-87
2024/03/08 03:05:05;;;;;;;;;;;;;;;;;;4197103;28;20038;-87
2024/03/08 03:07:07;;;;;;;;;;;;;;;;;;4180061;28;19967;-87
2024/03/08 03:09:10;;;;;;;;;;;;;;;;;;4198145;28;19924;-87
2024/03/08 03:11:13;;;;;;;;;;;;;;;;;;4196849;28;20003;-87
2024/03/08 03:13:15;;;;;;;;;;;;;;;;;;4180020;28;20407;-87
2024/03/08 03:15:19;;;;;;;;;;;;;;;;;;4180210;28;19924;-87
2024/03/08 03:17:21;;;;;;;;;;;;;;;;;;4197669;28;19940;-87
2024/03/08 03:19:23;;;;;;;;;;;;;;;;;;4197080;28;19935;-87
2024/03/08 03:21:25;;;;;;;;;;;;;;;;;;4197855;28;19924;-87
2024/03/08 03:23:26;;;;;;;;;;;;;;;;;;4196161;28;19931;-86
2024/03/08 03:25:35;;;;;;;;;;;;;;;;;;4197909;28;20323;-87
2024/03/08 03:27:38;;;;;;;;;;;;;;;;;;4179866;28;19925;-86
2024/03/08 03:29:42;;;;;;;;;;;;;;;;;;4155104;28;19921;-87
2024/03/08 03:31:46;;;;;;;;;;;;;;;;;;4179633;28;20443;-87
2024/03/08 03:33:48;;;;;;;;;;;;;;;;;;4182284;28;19920;-87
2024/03/08 03:35:51;;;;;;;;;;;;;;;;;;4196381;28;19927;-87
2024/03/08 03:38:06;;;;;;;;;;;;;;;;;;4197630;28;19924;-87
2024/03/08 03:40:09;;;;;;;;;;;;;;;;;;4196447;28;20368;-87
2024/03/08 03:42:10;;;;;;;;;;;;;;;;;;4197660;28;19920;-86
2024/03/08 03:44:12;;;;;;;;;;;;;;;;;;4196066;28;19921;-86
2024/03/08 03:46:14;;;;;;;;;;;;;;;;;;4179714;28;19928;-87
2024/03/08 03:48:16;;;;;;;;;;;;;;;;;;4179882;28;19924;-87
2024/03/08 03:50:19;;;;;;;;;;;;;;;;;;4179613;28;20376;-87
2024/03/08 03:52:20;;;;;;;;;;;;;;;;;;4197349;28;19920;-87
2024/03/08 03:54:22;;;;;;;;;;;;;;;;;;4179132;28;19986;-87
2024/03/08 03:56:23;;;;;;;;;;;;;;;;;;4170730;28;19947;-87
2024/03/08 03:58:27;;;;;;;;;;;;;;;;;;4196118;28;19920;-87
2024/03/08 04:00:28;;;;;;;;;;;;;;;;;;4196280;28;20367;-86
2024/03/08 04:02:30;;;;;;;;;;;;;;;;;;4195856;28;19954;-87
2024/03/08 04:04:32;;;;;;;;;;;;;;;;;;4195742;28;19956;-86
2024/03/08 04:06:33;;;;;;;;;;;;;;;;;;4195596;28;20385;-87
2024/03/08 04:08:35;;;;;;;;;;;;;;;;;;4196130;28;19927;-86
2024/03/08 04:10:36;;;;;;;;;;;;;;;;;;4179193;28;19952;-87
2024/03/08 04:12:38;;;;;;;;;;;;;;;;;;4195707;28;19927;-86
2024/03/08 04:14:41;;;;;;;;;;;;;;;;;;4196045;28;19921;-87
2024/03/08 04:16:42;;;;;;;;;;;;;;;;;;4196709;28;19920;-87
2024/03/08 04:18:44;;;;;;;;;;;;;;;;;;4179019;28;20388;-86
2024/03/08 04:20:45;;;;;;;;;;;;;;;;;;4196118;28;20016;-87
2024/03/08 04:22:49;;;;;;;;;;;;;;;;;;4196207;28;19979;-87
2024/03/08 04:24:50;;;;;;;;;;;;;;;;;;4179272;28;19928;-87
2024/03/08 04:26:52;;;;;;;;;;;;;;;;;;4178688;28;19921;-87
2024/03/08 04:28:54;;;;;;;;;;;;;;;;;;4179469;28;20406;-85
2024/03/08 04:30:56;;;;;;;;;;;;;;;;;;4171639;28;20297;-83
2024/03/08 04:32:57;;;;;;;;;;;;;;;;;;4179601;28;20400;-82
2024/03/08 04:35:01;;;;;;;;;;;;;;;;;;4196821;28;19954;-83
2024/03/08 04:37:04;;;;;;;;;;;;;;;;;;4182206;28;19960;-82
2024/03/08 04:39:06;;;;;;;;;;;;;;;;;;4200462;28;19921;-82
2024/03/08 04:41:07;;;;;;;;;;;;;;;;;;4200228;28;19931;-83
2024/03/08 04:43:10;;;;;;;;;;;;;;;;;;4199042;28;20365;-83
2024/03/08 04:45:12;;;;;;;;;;;;;;;;;;4181775;28;20667;-83
2024/03/08 04:47:13;;;;;;;;;;;;;;;;;;4182446;28;20411;-82
2024/03/08 04:49:15;;;;;;;;;;;;;;;;;;4198514;28;19975;-82
2024/03/08 04:51:16;;;;;;;;;;;;;;;;;;4198962;28;19924;-82
2024/03/08 04:53:18;;;;;;;;;;;;;;;;;;4199490;28;20019;-82
2024/03/08 04:55:20;;;;;;;;;;;;;;;;;;4199108;28;20494;-82
2024/03/08 04:57:22;;;;;;;;;;;;;;;;;;4181362;28;19928;-82
2024/03/08 04:59:24;;;;;;;;;;;;;;;;;;4165701;28;19932;-82
2024/03/08 05:01:26;;;;;;;;;;;;;;;;;;4199852;28;20403;-82
2024/03/08 05:03:27;;;;;;;;;;;;;;;;;;4181526;28;19925;-82
2024/03/08 05:05:30;;;;;;;;;;;;;;;;;;4181882;28;19971;-82
2024/03/08 05:07:32;;;;;;;;;;;;;;;;;;4180674;28;19924;-82
2024/03/08 05:09:36;;;;;;;;;;;;;;;;;;4194770;28;20363;-82
2024/03/08 05:11:37;;;;;;;;;;;;;;;;;;4199581;28;19943;-82
2024/03/08 05:13:40;;;;;;;;;;;;;;;;;;4199796;28;19982;-82
2024/03/08 05:15:42;;;;;;;;;;;;;;;;;;4194361;28;19960;-82
2024/03/08 05:17:44;;;;;;;;;;;;;;;;;;4182905;28;19921;-82
2024/03/08 05:19:46;;;;;;;;;;;;;;;;;;4168653;28;19925;-82
2024/03/08 05:21:48;;;;;;;;;;;;;;;;;;4199538;28;19924;-82
2024/03/08 05:23:50;;;;;;;;;;;;;;;;;;4181453;28;19927;-82
2024/03/08 05:25:51;;;;;;;;;;;;;;;;;;4165068;28;19948;-82
2024/03/08 05:27:53;;;;;;;;;;;;;;;;;;4167201;28;19979;-82
2024/03/08 05:29:54;;;;;;;;;;;;;;;;;;4182905;28;19920;-83
2024/03/08 05:31:57;;;;;;;;;;;;;;;;;;4182990;28;20364;-82
2024/03/08 05:33:59;;;;;;;;;;;;;;;;;;4181483;28;19924;-82
2024/03/08 05:36:02;;;;;;;;;;;;;;;;;;4164269;28;20421;-82
2024/03/08 05:38:03;;;;;;;;;;;;;;;;;;4181817;28;19963;-82
2024/03/08 05:40:08;;;;;;;;;;;;;;;;;;4182949;28;19974;-85
2024/03/08 05:42:14;;;;;;;;;;;;;;;;;;4181690;28;20361;-85
2024/03/08 05:44:19;;;;;;;;;;;;;;;;;;4181382;28;20399;-85
2024/03/08 05:46:22;;;;;;;;;;;;;;;;;;4163790;28;20400;-85
2024/03/08 05:48:25;;;;;;;;;;;;;;;;;;4186531;28;19974;-85
2024/03/08 05:50:27;;;;;;;;;;;;;;;;;;4182709;28;20016;-85
2024/03/08 05:52:28;;;;;;;;;;;;;;;;;;4148598;28;19932;-85
2024/03/08 05:54:30;;;;;;;;;;;;;;;;;;4181267;28;19920;-85
2024/03/08 05:56:31;;;;;;;;;;;;;;;;;;4183029;28;19927;-85
2024/03/08 05:58:33;;;;;;;;;;;;;;;;;;4197839;28;19931;-85
2024/03/08 06:00:36;;;;;;;;;;;;;;;;;;4197917;28;19920;-85
2024/03/08 06:02:40;;;;;;;;;;;;;;;;;;4198940;28;19973;-85
2024/03/08 06:04:42;;;;;;;;;;;;;;;;;;4197226;28;19931;-85
2024/03/08 06:06:44;;;;;;;;;;;;;;;;;;4197274;28;20012;-85
2024/03/08 06:08:48;;;;;;;;;;;;;;;;;;4197292;28;19924;-85
2024/03/08 06:10:52;;;;;;;;;;;;;;;;;;4179143;28;19921;-85
2024/03/08 06:12:54;;;;;;;;;;;;;;;;;;4198666;28;19924;-85
2024/03/08 06:14:56;;;;;;;;;;;;;;;;;;4179892;28;19921;-85
2024/03/08 06:16:57;;;;;;;;;;;;;;;;;;4180706;28;19947;-85
2024/03/08 06:19:02;;;;;;;;;;;;;;;;;;4188098;28;19925;-85
2024/03/08 06:21:05;;;;;;;;;;;;;;;;;;4180141;28;20025;-84
2024/03/08 06:23:06;;;;;;;;;;;;;;;;;;4197593;28;19921;-85
2024/03/08 06:25:08;;;;;;;;;;;;;;;;;;4188280;28;20014;-85
2024/03/08 06:27:10;;;;;;;;;;;;;;;;;;4191267;28;19924;-85
2024/03/08 06:29:12;;;;;;;;;;;;;;;;;;4172375;28;19921;-85
2024/03/08 06:31:14;;;;;;;;;;;;;;;;;;4198305;28;19926;-85
2024/03/08 06:33:17;;;;;;;;;;;;;;;;;;4198920;28;19920;-85
2024/03/08 06:35:20;;;;;;;;;;;;;;;;;;4162511;28;20296;-84
2024/03/08 06:37:23;;;;;;;;;;;;;;;;;;4180650;28;19920;-84
2024/03/08 06:39:25;;;;;;;;;;;;;;;;;;4198628;28;19921;-85
2024/03/08 06:41:26;;;;;;;;;;;;;;;;;;4180611;28;19967;-82
2024/03/08 06:43:33;;;;;;;;;;;;;;;;;;4198255;28;19924;-82
2024/03/08 06:45:36;;;;;;;;;;;;;;;;;;4180112;28;19928;-82
2024/03/08 06:47:38;;;;;;;;;;;;;;;;;;4197787;28;19966;-82
2024/03/08 06:49:40;;;;;;;;;;;;;;;;;;4197883;28;19924;-82
2024/03/08 06:51:41;;;;;;;;;;;;;;;;;;4198241;28;19924;-80
2024/03/08 06:53:43;;;;;;;;;;;;;;;;;;4180270;28;19921;-80
2024/03/08 06:55:44;;;;;;;;;;;;;;;;;;4197880;28;19920;-80
2024/03/08 06:57:46;;;;;;;;;;;;;;;;;;4197690;28;19947;-80
2024/03/08 06:59:47;;;;;;;;;;;;;;;;;;4198301;28;19924;-80
2024/03/08 07:01:49;;;;;;;;;;;;;;;;;;4197784;28;20018;-80
2024/03/08 07:03:52;;;;;;;;;;;;;;;;;;4196514;28;19921;-80
2024/03/08 07:05:53;;;;;;;;;;;;;;;;;;4180380;28;20399;-80
2024/03/08 07:07:55;;;;;;;;;;;;;;;;;;4197670;28;19921;-80
2024/03/08 07:09:57;;;;;;;;;;;;;;;;;;4197970;28;19930;-80
2024/03/08 07:11:58;;;;;;;;;;;;;;;;;;4197938;28;20438;-80
2024/03/08 07:14:02;;;;;;;;;;;;;;;;;;4191298;28;21445;-80
2024/03/08 07:16:04;;;;;;;;;;;;;;;;;;4180249;28;20062;-80
2024/03/08 07:18:08;;;;;;;;;;;;;;;;;;4163690;28;19931;-80
2024/03/08 07:20:12;;;;;;;;;;;;;;;;;;4180031;28;19921;-81
2024/03/08 07:22:13;;;;;;;;;;;;;;;;;;4180123;28;19921;-80
2024/03/08 07:24:32;;;;;;;;;;;;;;;;;;4181115;28;19921;-80
2024/03/08 07:26:34;;;;;;;;;;;;;;;;;;4181254;28;19921;-80
2024/03/08 07:28:36;;;;;;;;;;;;;;;;;;4181366;28;19925;-80
2024/03/08 07:32:45;;;;;;;;;;;;;;;;;;4163557;28;19924;-80
2024/03/08 07:34:48;;;;;;;;;;;;;;;;;;4180497;28;20019;-80
2024/03/08 07:36:50;;;;;;;;;;;;;;;;;;4180893;28;19925;-80
2024/03/08 07:38:52;;;;;;;;;;;;;;;;;;4181522;28;19927;-80
2024/03/08 07:40:54;;;;;;;;;;;;;;;;;;4186293;28;19924;-80
2024/03/08 07:42:55;;;;;;;;;;;;;;;;;;4196712;28;19986;-80
2024/03/08 07:44:57;;;;;;;;;;;;;;;;;;4196094;28;19931;-80
2024/03/08 07:46:58;;;;;;;;;;;;;;;;;;4197684;28;20019;-80
2024/03/08 07:49:00;;;;;;;;;;;;;;;;;;4197765;28;19931;-80
2024/03/08 07:51:02;;;;;;;;;;;;;;;;;;4197605;28;19924;-80
2024/03/08 07:53:06;;;;;;;;;;;;;;;;;;4197572;28;19955;-80
2024/03/08 07:55:08;;;;;;;;;;;;;;;;;;4197510;28;20391;-80
2024/03/08 07:57:10;;;;;;;;;;;;;;;;;;4196789;28;20471;-80
2024/03/08 07:59:12;;;;;;;;;;;;;;;;;;4196247;28;20334;-80
2024/03/08 08:01:15;;;;;;;;;;;;;;;;;;4179714;28;19925;-80
2024/03/08 08:03:20;;;;;;;;;;;;;;;;;;4197092;28;19990;-79
2024/03/08 08:05:22;;;;;;;;;;;;;;;;;;4196119;28;19982;-79
2024/03/08 08:07:23;;;;;;;;;;;;;;;;;;4197293;28;19924;-79
2024/03/08 08:09:28;;;;;;;;;;;;;;;;;;4197338;28;19932;-80
2024/03/08 08:11:30;;;;;;;;;;;;;;;;;;4200069;28;19925;-79
2024/03/08 08:13:32;;;;;;;;;;;;;;;;;;4200376;28;20011;-79
2024/03/08 08:15:34;;;;;;;;;;;;;;;;;;4200632;28;19921;-80
2024/03/08 08:17:36;;;;;;;;;;;;;;;;;;4200352;28;20391;-80
2024/03/08 08:19:38;;;;;;;;;;;;;;;;;;4200669;28;19924;-79
2024/03/08 08:21:40;;;;;;;;;;;;;;;;;;4200235;28;19929;-79
2024/03/08 08:23:41;;;;;;;;;;;;;;;;;;4200184;28;20432;-79
2024/03/08 08:25:43;;;;;;;;;;;;;;;;;;4182549;28;19921;-79
2024/03/08 08:27:44;;;;;;;;;;;;;;;;;;4182517;28;19931;-79
2024/03/08 08:29:46;;;;;;;;;;;;;;;;;;4198756;28;19921;-79
2024/03/08 08:31:48;;;;;;;;;;;;;;;;;;4182576;28;19963;-79
2024/03/08 08:33:56;;;;;;;;;;;;;;;;;;4199941;28;19920;-80
2024/03/08 08:35:58;;;;;;;;;;;;;;;;;;4200263;28;19921;-79
2024/03/08 08:37:59;;;;;;;;;;;;;;;;;;4199430;28;19967;-79
2024/03/08 08:40:05;;;;;;;;;;;;;;;;;;4198953;28;19920;-80
2024/03/08 08:42:09;;;;;;;;;;;;;;;;;;4200024;28;19970;-79
2024/03/08 08:44:12;;;;;;;;;;;;;;;;;;4198676;28;19986;-80
2024/03/08 08:46:16;;;;;;;;;;;;;;;;;;4199976;28;19928;-80
2024/03/08 08:48:19;;;;;;;;;;;;;;;;;;4200023;28;19926;-79
2024/03/08 08:50:23;;;;;;;;;;;;;;;;;;4199915;28;19925;-80
2024/03/08 08:52:25;;;;;;;;;;;;;;;;;;4198817;28;19920;-80
2024/03/08 08:54:27;;;;;;;;;;;;;;;;;;4200153;28;19965;-80
2024/03/08 08:56:29;;;;;;;;;;;;;;;;;;4199053;28;20264;-80
2024/03/08 08:58:30;;;;;;;;;;;;;;;;;;4199813;28;19978;-80
2024/03/08 09:00:32;;;;;;;;;;;;;;;;;;4199742;28;19920;-81
2024/03/08 09:02:34;;;;;;;;;;;;;;;;;;4199652;28;19921;-81
2024/03/08 09:04:36;;;;;;;;;;;;;;;;;;4199420;28;19974;-80
2024/03/08 09:06:37;;;;;;;;;;;;;;;;;;4190770;28;19943;-80
2024/03/08 09:08:39;;;;;;;;;;;;;;;;;;4183029;28;19948;-80
2024/03/08 09:10:40;;;;;;;;;;;;;;;;;;4183046;28;20350;-80
2024/03/08 09:12:42;;;;;;;;;;;;;;;;;;4181827;28;19972;-80
2024/03/08 09:14:44;;;;;;;;;;;;;;;;;;4182958;28;19921;-79
2024/03/08 09:16:47;;;;;;;;;;;;;;;;;;4183106;28;19927;-80
2024/03/08 09:18:48;;;;;;;;;;;;;;;;;;4181657;28;19921;-80
2024/03/08 09:20:50;;;;;;;;;;;;;;;;;;4181370;28;20189;-79
2024/03/08 09:22:52;;;;;;;;;;;;;;;;;;4148670;28;20032;-79
2024/03/08 09:24:54;;;;;;;;;;;;;;;;;;4182775;28;20471;-80
2024/03/08 09:26:55;;;;;;;;;;;;;;;;;;4183022;28;19994;-80
2024/03/08 09:28:57;;;;;;;;;;;;;;;;;;4182883;28;20022;-79
2024/03/08 09:31:01;;;;;;;;;;;;;;;;;;4182908;28;19927;-80
2024/03/08 09:33:02;;;;;;;;;;;;;;;;;;4185028;28;19924;-81
2024/03/08 09:35:07;;;;;;;;;;;;;;;;;;4199251;28;20414;-79
2024/03/08 09:37:08;;;;;;;;;;;;;;;;;;4181357;28;19927;-79
2024/03/08 09:39:16;;;;;;;;;;;;;;;;;;4181043;28;19925;-79
2024/03/08 09:41:17;;;;;;;;;;;;;;;;;;4199243;28;19927;-79
2024/03/08 09:43:19;;;;;;;;;;;;;;;;;;4193376;28;19974;-79
2024/03/08 09:45:23;;;;;;;;;;;;;;;;;;4197348;28;19920;-78
2024/03/08 09:47:29;;;;;;;;;;;;;;;;;;4198518;28;19927;-80
2024/03/08 09:49:30;;;;;;;;;;;;;;;;;;4198577;28;19977;-80
2024/03/08 09:51:32;;;;;;;;;;;;;;;;;;4180543;28;19928;-79
2024/03/08 09:53:33;;;;;;;;;;;;;;;;;;4198279;28;20002;-79
2024/03/08 09:55:36;;;;;;;;;;;;;;;;;;4164371;28;19952;-79
2024/03/08 09:57:38;;;;;;;;;;;;;;;;;;4198635;28;19955;-78
2024/03/08 10:01:41;;;;;;;;;;;;;;;;;;4198250;28;19925;-79
2024/03/08 10:03:43;;;;;;;;;;;;;;;;;;4174235;28;20097;-80
2024/03/08 10:05:44;;;;;;;;;;;;;;;;;;4196320;28;19989;-79
2024/03/08 10:07:53;;;;;;;;;;;;;;;;;;4192703;28;19924;-80
2024/03/08 10:10:02;;;;;;;;;;;;;;;;;;4198017;28;20434;-79
2024/03/08 10:12:05;;;;;;;;;;;;;;;;;;4180212;28;19920;-79
2024/03/08 10:14:11;;;;;;;;;;;;;;;;;;4180375;28;19921;-78
2024/03/08 10:16:29;;;;;;;;;;;;;;;;;;4182554;28;20000;-79
2024/03/08 10:18:31;;;;;;;;;;;;;;;;;;4197929;28;20391;-79
2024/03/08 10:20:34;;;;;;;;;;;;;;;;;;4198191;28;19920;-80
2024/03/08 10:22:38;;;;;;;;;;;;;;;;;;4197732;28;19966;-81
2024/03/08 10:24:45;;;;;;;;;;;;;;;;;;4198356;28;20027;-83
2024/03/08 10:26:49;;;;;;;;;;;;;;;;;;4180204;28;20415;-84
2024/03/08 10:29:08;;;;;;;;;;;;;;;;;;4166173;28;19928;-84
2024/03/08 10:31:11;;;;;;;;;;;;;;;;;;4180777;28;20392;-83
2024/03/08 10:33:17;;;;;;;;;;;;;;;;;;4196372;28;19974;-83
2024/03/08 10:35:22;;;;;;;;;;;;;;;;;;4196818;28;19920;-84
2024/03/08 10:37:33;;;;;;;;;;;;;;;;;;4178205;28;19925;-83
2024/03/08 10:39:36;;;;;;;;;;;;;;;;;;4180435;28;19924;-83
2024/03/08 10:41:40;;;;;;;;;;;;;;;;;;4198015;28;19921;-83
2024/03/08 10:43:44;;;;;;;;;;;;;;;;;;4196596;28;19924;-83
2024/03/08 10:45:55;;;;;;;;;;;;;;;;;;4179790;28;19921;-84
2024/03/08 10:48:02;;;;;;;;;;;;;;;;;;4164078;28;19944;-83
2024/03/08 10:50:08;;;;;;;;;;;;;;;;;;4198216;28;19924;-85
2024/03/08 10:52:15;;;;;;;;;;;;;;;;;;4197753;28;19928;-86
2024/03/08 10:54:29;;;;;;;;;;;;;;;;;;4178960;28;20320;-83
2024/03/08 10:56:33;;;;;;;;;;;;;;;;;;4197480;28;19924;-83
2024/03/08 10:58:36;;;;;;;;;;;;;;;;;;4179786;28;20411;-83
2024/03/08 11:00:41;;;;;;;;;;;;;;;;;;4180057;28;19967;-83
2024/03/08 11:02:43;;;;;;;;;;;;;;;;;;4162288;28;20028;-84
2024/03/08 11:04:49;;;;;;;;;;;;;;;;;;4173135;28;19925;-85
2024/03/08 11:07:06;;;;;;;;;;;;;;;;;;4196976;28;19926;-83
2024/03/08 11:09:17;;;;;;;;;;;;;;;;;;4195976;28;19927;-84
2024/03/08 11:11:27;;;;;;;;;;;;;;;;;;4196977;28;19967;-85
2024/03/08 11:13:45;;;;;;;;;;;;;;;;;;4195335;28;19924;-83
2024/03/08 11:15:50;;;;;;;;;;;;;;;;;;4177291;28;19955;-83
2024/03/08 11:17:57;;;;;;;;;;;;;;;;;;4179135;28;20015;-83
2024/03/08 11:20:01;;;;;;;;;;;;;;;;;;4160962;28;19932;-83
2024/03/08 11:22:10;;;;;;;;;;;;;;;;;;4175681;28;19952;-83
2024/03/08 11:24:14;;;;;;;;;;;;;;;;;;4189519;28;19932;-81
2024/03/08 11:26:18;;;;;;;;;;;;;;;;;;4170094;28;19960;-82
2024/03/08 11:28:22;;;;;;;;;;;;;;;;;;4177931;28;19978;-82
2024/03/08 11:30:26;;;;;;;;;;;;;;;;;;4178452;28;20398;-83
2024/03/08 11:32:32;;;;;;;;;;;;;;;;;;4161843;28;20426;-82
2024/03/08 11:34:34;;;;;;;;;;;;;;;;;;4162828;28;19921;-81
2024/03/08 11:36:40;;;;;;;;;;;;;;;;;;4195955;28;19920;-82
2024/03/08 11:38:43;;;;;;;;;;;;;;;;;;4196961;28;19927;-82
2024/03/08 11:40:53;;;;;;;;;;;;;;;;;;4180064;28;19927;-82
2024/03/08 11:43:06;;;;;;;;;;;;;;;;;;4163252;28;19936;-82
2024/03/08 11:45:08;;;;;;;;;;;;;;;;;;4182034;28;19920;-81
2024/03/08 11:47:10;;;;;;;;;;;;;;;;;;4200791;28;19920;-82
2024/03/08 11:49:17;;;;;;;;;;;;;;;;;;4182044;28;19964;-82
2024/03/08 11:51:21;;;;;;;;;;;;;;;;;;4200151;28;19924;-82
2024/03/08 11:53:22;;;;;;;;;;;;;;;;;;4180263;28;19990;-81
2024/03/08 11:55:24;;;;;;;;;;;;;;;;;;4175337;28;19955;-82
2024/03/08 11:57:29;;;;;;;;;;;;;;;;;;4194577;28;19925;-82
2024/03/08 11:59:31;;;;;;;;;;;;;;;;;;4193403;28;19924;-83
2024/03/08 12:01:32;;;;;;;;;;;;;;;;;;4190952;28;19927;-82
2024/03/08 12:03:34;;;;;;;;;;;;;;;;;;4192445;28;19927;-82
2024/03/08 12:05:47;;;;;;;;;;;;;;;;;;4175983;28;19920;-82
2024/03/08 12:07:48;;;;;;;;;;;;;;;;;;4198339;28;19920;-82
2024/03/08 12:09:52;;;;;;;;;;;;;;;;;;4189028;28;19943;-82
2024/03/08 12:12:00;;;;;;;;;;;;;;;;;;4186477;28;19970;-83
2024/03/08 12:14:03;;;;;;;;;;;;;;;;;;4166036;28;19920;-82
2024/03/08 12:16:08;;;;;;;;;;;;;;;;;;4161654;28;19925;-82
2024/03/08 12:18:12;;;;;;;;;;;;;;;;;;4169742;28;20365;-82
2024/03/08 12:20:17;;;;;;;;;;;;;;;;;;4191828;28;19920;-82
2024/03/08 12:22:19;;;;;;;;;;;;;;;;;;4175775;28;19928;-83
2024/03/08 12:24:23;;;;;;;;;;;;;;;;;;4183442;28;19921;-82
2024/03/08 12:26:33;;;;;;;;;;;;;;;;;;4187745;28;19966;-82
2024/03/08 12:28:41;;;;;;;;;;;;;;;;;;4178687;28;19948;-82
2024/03/08 12:30:46;;;;;;;;;;;;;;;;;;4182967;28;19920;-82
2024/03/08 12:32:48;;;;;;;;;;;;;;;;;;4200257;28;19973;-82
2024/03/08 12:34:49;;;;;;;;;;;;;;;;;;4193647;28;19927;-83
2024/03/08 12:36:54;;;;;;;;;;;;;;;;;;4198168;28;19920;-82
2024/03/08 12:39:01;;;;;;;;;;;;;;;;;;4190876;28;19990;-83
2024/03/08 12:41:14;;;;;;;;;;;;;;;;;;4195413;28;20474;-82
2024/03/08 12:43:22;;;;;;;;;;;;;;;;;;4187218;28;19931;-88
2024/03/08 12:45:27;;;;;;;;;;;;;;;;;;4198397;28;19920;-85
2024/03/08 12:47:34;;;;;;;;;;;;;;;;;;4182916;28;19924;-85
2024/03/08 12:49:37;;;;;;;;;;;;;;;;;;4199875;28;19920;-85
2024/03/08 12:51:45;;;;;;;;;;;;;;;;;;4170973;28;19968;-85
2024/03/08 12:53:55;;;;;;;;;;;;;;;;;;4216505;28;19973;-85
2024/03/08 12:56:08;;;;;;;;;;;;;;;;;;4216198;28;19966;-85
2024/03/08 12:58:11;;;;;;;;;;;;;;;;;;4165685;28;19951;-85
2024/03/08 13:00:19;;;;;;;;;;;;;;;;;;4165636;28;19921;-85
2024/03/08 13:02:23;;;;;;;;;;;;;;;;;;4165379;28;20007;-85
2024/03/08 13:04:25;;;;;;;;;;;;;;;;;;4182997;28;20011;-85
2024/03/08 13:06:28;;;;;;;;;;;;;;;;;;4181839;28;19925;-85
2024/03/08 13:08:31;;;;;;;;;;;;;;;;;;4183113;28;19921;-85
2024/03/08 13:10:39;;;;;;;;;;;;;;;;;;4195467;28;20376;-84
2024/03/08 13:12:46;;;;;;;;;;;;;;;;;;4194548;28;20036;-85
2024/03/08 13:14:50;;;;;;;;;;;;;;;;;;4181213;28;19931;-84
2024/03/08 13:16:55;;;;;;;;;;;;;;;;;;4191626;28;19963;-85
2024/03/08 13:18:57;;;;;;;;;;;;;;;;;;4195430;28;19924;-85
2024/03/08 13:20:58;;;;;;;;;;;;;;;;;;4199690;28;19920;-85
2024/03/08 13:23:01;;;;;;;;;;;;;;;;;;4199527;28;19921;-85
2024/03/08 13:25:05;;;;;;;;;;;;;;;;;;4180409;28;20372;-85
2024/03/08 13:27:16;;;;;;;;;;;;;;;;;;4199366;28;20284;-85
2024/03/08 13:29:18;;;;;;;;;;;;;;;;;;4181446;28;20372;-85
2024/03/08 13:31:25;;;;;;;;;;;;;;;;;;4181310;28;20418;-85
2024/03/08 13:33:29;;;;;;;;;;;;;;;;;;4180657;28;19947;-86
2024/03/08 13:35:34;;;;;;;;;;;;;;;;;;4197549;28;19963;-85
2024/03/08 13:37:36;;;;;;;;;;;;;;;;;;4199075;28;19970;-87
2024/03/08 13:39:45;;;;;;;;;;;;;;;;;;4197789;28;20261;-85
2024/03/08 13:41:49;;;;;;;;;;;;;;;;;;4181517;28;19920;-85
2024/03/08 13:43:57;;;;;;;;;;;;;;;;;;4180766;28;19928;-86
2024/03/08 13:45:58;;;;;;;;;;;;;;;;;;4182547;28;19921;-85
2024/03/08 13:48:02;;;;;;;;;;;;;;;;;;4187300;28;19954;-85
2024/03/08 13:50:07;;;;;;;;;;;;;;;;;;4197777;28;20354;-84
2024/03/08 13:52:10;;;;;;;;;;;;;;;;;;4197446;28;19920;-85
2024/03/08 13:54:11;;;;;;;;;;;;;;;;;;4197979;28;19998;-84
2024/03/08 13:56:18;;;;;;;;;;;;;;;;;;4198927;28;20011;-84
2024/03/08 13:58:20;;;;;;;;;;;;;;;;;;4181175;28;19921;-83
2024/03/08 14:00:27;;;;;;;;;;;;;;;;;;4199033;28;19927;-83
2024/03/08 14:02:30;;;;;;;;;;;;;;;;;;4198833;28;19970;-83
2024/03/08 14:04:34;;;;;;;;;;;;;;;;;;4198402;28;19935;-82